Vista Santa Rosa, California
Current Conditions -  °F | °C
As of 4:56 PM on Sunday 23 Nov 2014 (Local Time) from KNJK Reporting Station
Clear Clear  
Wind Chill: 66°   Ceiling: Unl
Heat Index: 66°   Visibility: 10mi
Dew Point: 19°   Wind: 7mph
Humidity: 17%   Direction: 310°NW
Pressure: 30.11"   Gusts: NA
Location:  33.093°N, 116.06°W
Report Text: KNJK 240056Z AUTO 31006KT 10SM CLR 19/M07 A3011 RMK AO2 SLP213 T01891072 PWINO $
Loading
Personal Weather Stations






























Interactive Weather Map New forecast layout! Learn more

10-Day Weather Forecast

Advertisements
Track Severe Weather on mobile